createdAt,value
2018-08-24T00:03:04.293Z,98318.83
2018-08-24T00:06:09.201Z,98319.87
2018-08-24T00:09:15.163Z,98315.50
2018-08-24T00:12:20.284Z,98313.27
2018-08-24T00:15:25.208Z,98301.96
2018-08-24T00:18:30.108Z,98300.80
2018-08-24T00:21:35.004Z,98295.47
2018-08-24T00:24:39.924Z,98295.44
2018-08-24T00:27:44.857Z,98290.02
2018-08-24T00:30:49.751Z,98288.02
2018-08-24T00:33:54.649Z,98290.14
2018-08-24T00:36:59.556Z,98285.43
2018-08-24T00:40:04.504Z,98292.21
2018-08-24T00:43:09.420Z,98291.26
2018-08-24T00:46:17.540Z,98293.36
2018-08-24T00:49:22.449Z,98295.84
2018-08-24T00:52:27.349Z,98301.77
2018-08-24T00:55:32.257Z,98305.73
2018-08-24T00:58:37.909Z,98303.92
2018-08-24T01:01:43.153Z,98310.27
2018-08-24T01:04:48.101Z,98302.17
2018-08-24T01:07:58.764Z,98307.31
2018-08-24T01:11:03.892Z,98310.00
2018-08-24T01:14:08.971Z,98305.28
2018-08-24T01:17:19.679Z,98313.97
2018-08-24T01:20:29.590Z,98309.70
2018-08-24T01:23:34.548Z,98304.06
2018-08-24T01:26:39.541Z,98300.02
2018-08-24T01:29:44.509Z,98295.73
2018-08-24T01:32:49.461Z,98293.98
2018-08-24T01:35:54.864Z,98296.40
2018-08-24T01:39:00.276Z,98303.29
2018-08-24T01:42:05.236Z,98297.20
2018-08-24T01:45:10.169Z,98291.55
2018-08-24T01:48:15.100Z,98304.52
2018-08-24T01:51:20.005Z,98310.05
2018-08-24T01:54:24.916Z,98308.64
2018-08-24T01:57:29.812Z,98311.50
2018-08-24T02:00:35.001Z,98302.94
2018-08-24T02:03:39.911Z,98300.28
2018-08-24T02:06:44.812Z,98297.94
2018-08-24T02:09:49.728Z,98294.84
2018-08-24T02:13:00.501Z,98290.30
2018-08-24T02:16:05.744Z,98295.95
2018-08-24T02:19:13.076Z,98288.06
2018-08-24T02:22:18.507Z,98288.91
2018-08-24T02:25:24.057Z,98283.95
2018-08-24T02:28:28.993Z,98286.34
2018-08-24T02:31:39.662Z,98287.98
2018-08-24T02:34:44.560Z,98282.77
2018-08-24T02:37:50.537Z,98290.02
2018-08-24T02:40:55.449Z,98296.48
2018-08-24T02:44:00.353Z,98297.80
2018-08-24T02:47:05.270Z,98287.74
2018-08-24T02:50:10.181Z,98290.06
2018-08-24T02:53:15.089Z,98292.25
2018-08-24T02:56:20.025Z,98295.82
2018-08-24T02:59:24.929Z,98293.73
2018-08-24T03:02:29.880Z,98293.52
2018-08-24T03:05:35.063Z,98292.47
2018-08-24T03:08:39.880Z,98292.33
2018-08-24T03:11:44.813Z,98286.23
2018-08-24T03:14:49.870Z,98287.91
2018-08-24T03:17:54.921Z,98290.78
2018-08-24T03:20:59.841Z,98289.42
2018-08-24T03:24:04.796Z,98285.86
2018-08-24T03:27:09.753Z,98284.83
2018-08-24T03:30:14.717Z,98287.44
2018-08-24T03:33:19.625Z,98288.07
2018-08-24T03:36:24.565Z,98290.09
2018-08-24T03:39:29.505Z,98291.19
2018-08-24T03:42:34.452Z,98289.01
2018-08-24T03:45:39.435Z,98293.64
2018-08-24T03:48:44.336Z,98290.78
2018-08-24T03:51:49.264Z,98296.08
2018-08-24T03:54:54.450Z,98296.44
2018-08-24T03:57:59.432Z,98298.11
2018-08-24T04:01:04.497Z,98294.80
2018-08-24T04:04:09.443Z,98298.12
2018-08-24T04:07:14.369Z,98300.05
2018-08-24T04:10:19.289Z,98303.27
2018-08-24T04:13:24.224Z,98304.51
2018-08-24T04:16:33.746Z,98300.73
2018-08-24T04:19:38.728Z,98306.48
2018-08-24T04:22:43.632Z,98314.09
2018-08-24T04:25:48.685Z,98312.83
2018-08-24T04:28:53.520Z,98311.95
2018-08-24T04:31:58.437Z,98317.16
2018-08-24T04:35:03.874Z,98324.24
2018-08-24T04:38:08.753Z,98318.61
2018-08-24T04:41:13.689Z,98321.56
2018-08-24T04:44:18.624Z,98334.08
2018-08-24T04:47:23.589Z,98329.92
2018-08-24T04:50:28.508Z,98333.37
2018-08-24T04:53:33.424Z,98334.60
2018-08-24T04:56:38.352Z,98329.56
2018-08-24T04:59:43.285Z,98335.36
2018-08-24T05:02:48.202Z,98334.91
2018-08-24T05:05:53.369Z,98341.50
2018-08-24T05:08:58.276Z,98350.02
2018-08-24T05:12:03.441Z,98351.81
2018-08-24T05:15:08.374Z,98343.88
2018-08-24T05:18:13.345Z,98350.39
2018-08-24T05:21:18.311Z,98344.23
2018-08-24T05:24:23.263Z,98341.17
2018-08-24T05:27:28.197Z,98348.43
2018-08-24T05:30:33.178Z,98349.47
2018-08-24T05:33:38.189Z,98351.56
2018-08-24T05:36:43.100Z,98359.92
2018-08-24T05:39:48.045Z,98364.92
2018-08-24T05:42:52.973Z,98367.66
2018-08-24T05:45:57.902Z,98367.33
2018-08-24T05:49:03.046Z,98373.91
2018-08-24T05:52:08.067Z,98380.21
2018-08-24T05:55:13.013Z,98377.70
2018-08-24T05:58:18.073Z,98382.71
2018-08-24T06:01:24.437Z,98375.17
2018-08-24T06:04:29.390Z,98395.23
2018-08-24T06:07:34.336Z,98390.97
2018-08-24T06:10:39.280Z,98400.20
2018-08-24T06:13:44.660Z,98398.53
2018-08-24T06:16:56.121Z,98397.38
2018-08-24T06:20:01.126Z,98394.18
2018-08-24T06:23:06.116Z,98395.48
2018-08-24T06:26:11.060Z,98396.36
2018-08-24T06:29:16.029Z,98389.40
2018-08-24T06:32:20.976Z,98389.32
2018-08-24T06:35:25.919Z,98385.98
2018-08-24T06:38:30.861Z,98390.42
2018-08-24T06:41:36.191Z,98400.20
2018-08-24T06:44:41.160Z,98401.31
2018-08-24T06:47:46.186Z,98404.06
2018-08-24T06:50:51.033Z,98401.47
2018-08-24T06:53:56.087Z,98406.81
2018-08-24T06:57:00.933Z,98418.08
2018-08-24T07:00:06.833Z,98406.17
2018-08-24T07:03:11.814Z,98409.43
2018-08-24T07:06:16.701Z,98404.89
2018-08-24T07:09:21.628Z,98417.58
2018-08-24T07:12:26.585Z,98416.75
2018-08-24T07:15:31.485Z,98419.55
2018-08-24T07:18:36.407Z,98431.65
2018-08-24T07:21:41.332Z,98440.77
2018-08-24T07:24:46.306Z,98437.06
2018-08-24T07:27:51.397Z,98435.67
2018-08-24T07:30:56.316Z,98447.86
2018-08-24T07:34:01.387Z,98443.05
2018-08-24T07:37:06.325Z,98446.45
2018-08-24T07:40:11.524Z,98451.44
2018-08-24T07:43:17.024Z,98447.86
2018-08-24T07:46:21.962Z,98448.34
2018-08-24T07:49:26.909Z,98452.11
2018-08-24T07:52:31.818Z,98461.38
2018-08-24T07:55:36.849Z,98466.73
2018-08-24T07:58:41.778Z,98475.56
2018-08-24T08:01:46.757Z,98477.89
2018-08-24T08:04:51.704Z,98480.28
2018-08-24T08:07:56.628Z,98476.73
2018-08-24T08:11:01.749Z,98477.27
2018-08-24T08:14:06.700Z,98484.06
2018-08-24T08:17:13.409Z,98484.27
2018-08-24T08:20:18.361Z,98489.09
2018-08-24T08:23:23.280Z,98490.91
2018-08-24T08:26:28.235Z,98500.74
2018-08-24T08:29:39.025Z,98500.16
2018-08-24T08:32:44.168Z,98507.67
2018-08-24T08:35:49.118Z,98515.81
2018-08-24T08:38:54.048Z,98509.58
2018-08-24T08:41:58.990Z,98518.23
2018-08-24T08:45:03.976Z,98523.19
2018-08-24T08:48:08.905Z,98540.98
2018-08-24T08:51:13.838Z,98543.83
2018-08-24T08:54:18.769Z,98545.22
2018-08-24T08:57:23.699Z,98546.97
2018-08-24T09:00:28.677Z,98548.17
2018-08-24T09:03:33.612Z,98548.33
2018-08-24T09:06:38.543Z,98540.30
2018-08-24T09:09:43.474Z,98553.47
2018-08-24T09:12:48.467Z,98541.41
2018-08-24T09:15:53.344Z,98549.56
2018-08-24T09:19:03.964Z,98557.32
2018-08-24T09:22:14.741Z,98568.67
2018-08-24T09:25:25.535Z,98570.00
2018-08-24T09:28:37.073Z,98575.51
2018-08-24T09:31:42.435Z,98578.64
2018-08-24T09:34:47.392Z,98559.83
2018-08-24T09:37:52.345Z,98565.30
2018-08-24T09:40:57.292Z,98584.72
2018-08-24T09:44:19.427Z,98567.44
2018-08-24T09:47:30.150Z,98571.66
2018-08-24T09:50:40.776Z,98573.64
2018-08-24T09:53:51.464Z,98578.77
2018-08-24T09:56:56.735Z,98577.13
2018-08-24T10:00:02.046Z,98571.34
2018-08-24T10:03:12.815Z,98564.56
2018-08-24T10:06:23.673Z,98555.78
2018-08-24T10:09:28.511Z,98563.19
2018-08-24T10:12:36.488Z,98556.86
2018-08-24T10:15:41.320Z,98559.60
2018-08-24T10:18:46.303Z,98553.52
2018-08-24T10:21:51.200Z,98550.23
2018-08-24T10:24:56.104Z,98543.59
2018-08-24T10:28:01.002Z,98547.45
2018-08-24T10:31:05.893Z,98546.58
2018-08-24T10:34:10.800Z,98550.52
2018-08-24T10:37:15.702Z,98544.79
2018-08-24T10:40:20.616Z,98549.31
2018-08-24T10:43:25.527Z,98548.77
2018-08-24T10:46:30.432Z,98560.73
2018-08-24T10:49:35.353Z,98551.72
2018-08-24T10:52:40.253Z,98552.67
2018-08-24T10:55:45.232Z,98552.08
2018-08-24T10:58:50.248Z,98546.64
2018-08-24T11:01:55.198Z,98546.11
2018-08-24T11:05:00.077Z,98542.42
2018-08-24T11:08:05.040Z,98537.33
2018-08-24T11:11:09.937Z,98545.78
2018-08-24T11:14:15.016Z,98541.80
2018-08-24T11:17:19.909Z,98541.20
2018-08-24T11:20:24.823Z,98537.57
2018-08-24T11:23:29.845Z,98526.41
2018-08-24T11:26:34.761Z,98526.01
2018-08-24T11:29:39.738Z,98534.62
2018-08-24T11:32:44.660Z,98527.31
2018-08-24T11:35:49.786Z,98517.98
2018-08-24T11:38:54.823Z,98519.58
2018-08-24T11:41:59.857Z,98506.07
2018-08-24T11:45:05.396Z,98504.93
2018-08-24T11:48:10.325Z,98505.25
2018-08-24T11:51:15.356Z,98502.09
2018-08-24T11:54:20.316Z,98502.11
2018-08-24T11:57:25.477Z,98497.47
2018-08-24T12:00:31.624Z,98491.93
2018-08-24T12:03:36.639Z,98492.23
2018-08-24T12:06:42.464Z,98497.84
2018-08-24T12:09:47.426Z,98495.81
2018-08-24T12:12:52.413Z,98496.17
2018-08-24T12:15:57.379Z,98494.66
2018-08-24T12:19:02.393Z,98496.14
2018-08-24T12:22:07.529Z,98492.35
2018-08-24T12:25:12.562Z,98493.30
2018-08-24T12:28:17.544Z,98480.06
2018-08-24T12:31:23.241Z,98489.43
2018-08-24T12:34:28.206Z,98478.42
2018-08-24T12:37:38.862Z,98478.53
2018-08-24T12:40:44.021Z,98470.63
2018-08-24T12:43:49.303Z,98476.53
2018-08-24T12:46:54.269Z,98476.81
2018-08-24T12:49:59.442Z,98482.70
2018-08-24T12:53:04.603Z,98474.00
2018-08-24T12:56:14.588Z,98474.53
2018-08-24T12:59:19.552Z,98471.91
2018-08-24T13:02:24.587Z,98466.12
2018-08-24T13:05:29.563Z,98461.98
2018-08-24T13:08:34.676Z,98463.64
2018-08-24T13:11:39.627Z,98464.17
2018-08-24T13:14:44.612Z,98458.94
2018-08-24T13:17:49.706Z,98448.05
2018-08-24T13:20:54.596Z,98443.69
2018-08-24T13:23:59.596Z,98448.20
2018-08-24T13:27:04.825Z,98445.70
2018-08-24T13:30:09.835Z,98439.14
2018-08-24T13:33:14.856Z,98439.42
2018-08-24T13:36:20.028Z,98434.09
2018-08-24T13:39:25.030Z,98439.63
2018-08-24T13:42:30.023Z,98444.78
2018-08-24T13:45:35.017Z,98434.45
2018-08-24T13:48:40.049Z,98431.83
2018-08-24T13:51:45.022Z,98423.80
2018-08-24T13:54:50.164Z,98426.42
2018-08-24T13:57:55.381Z,98424.91
2018-08-24T14:01:00.721Z,98424.33
2018-08-24T14:04:05.703Z,98426.09
2018-08-24T14:07:10.633Z,98412.36
2018-08-24T14:10:15.583Z,98427.27
2018-08-24T14:13:20.580Z,98423.69
2018-08-24T14:16:26.524Z,98419.66
2018-08-24T14:19:31.610Z,98414.14
2018-08-24T14:22:36.595Z,98416.36
2018-08-24T14:25:41.683Z,98409.28
2018-08-24T14:28:46.587Z,98405.95
2018-08-24T14:31:51.620Z,98406.63
2018-08-24T14:34:56.818Z,98406.92
2018-08-24T14:38:02.132Z,98404.20
2018-08-24T14:41:07.093Z,98403.48
2018-08-24T14:44:12.267Z,98407.84
2018-08-24T14:49:08.785Z,98407.35
2018-08-24T14:52:15.195Z,98405.31
2018-08-24T14:55:20.146Z,98404.30
2018-08-24T14:58:25.090Z,98393.83
2018-08-24T15:01:30.099Z,98399.59
2018-08-24T15:04:35.143Z,98402.70
2018-08-24T15:07:44.937Z,98400.61
2018-08-24T15:10:50.075Z,98397.56
2018-08-24T15:13:55.028Z,98392.95
2018-08-24T15:17:00.029Z,98393.34
2018-08-24T15:20:05.949Z,98391.45
2018-08-24T15:23:11.057Z,98389.47
2018-08-24T15:26:15.942Z,98393.14
2018-08-24T15:29:21.000Z,98379.00
2018-08-24T15:32:25.953Z,98371.35
2018-08-24T15:35:30.971Z,98367.08
2018-08-24T15:38:35.963Z,98366.64
2018-08-24T15:41:41.672Z,98373.77
2018-08-24T15:44:46.649Z,98364.31
2018-08-24T15:47:51.711Z,98373.13
2018-08-24T15:50:58.510Z,98368.34
2018-08-24T15:54:03.540Z,98375.03
2018-08-24T15:57:08.542Z,98370.77
2018-08-24T16:00:13.622Z,98374.62
2018-08-24T16:03:18.584Z,98370.31
2018-08-24T16:06:23.530Z,98367.41
2018-08-24T16:09:28.502Z,98359.03
2018-08-24T16:12:33.506Z,98360.69
2018-08-24T16:15:38.535Z,98361.75
2018-08-24T16:18:43.513Z,98360.78
2018-08-24T16:21:48.449Z,98355.41
2018-08-24T16:24:53.464Z,98360.05
2018-08-24T16:27:59.026Z,98367.56
2018-08-24T16:31:04.020Z,98362.87
2018-08-24T16:34:08.933Z,98361.95
2018-08-24T16:37:13.868Z,98359.52
2018-08-24T16:40:18.830Z,98369.06
2018-08-24T16:43:23.756Z,98363.72
2018-08-24T16:46:28.742Z,98360.61
2018-08-24T16:49:33.812Z,98363.13
2018-08-24T16:52:38.774Z,98368.52
2018-08-24T16:55:43.709Z,98366.55
2018-08-24T16:58:48.637Z,98377.34
2018-08-24T17:01:53.621Z,98379.30
2018-08-24T17:04:59.255Z,98368.72
2018-08-24T17:08:04.672Z,98366.09
2018-08-24T17:11:09.681Z,98362.89
2018-08-24T17:14:14.679Z,98363.37
2018-08-24T17:17:19.823Z,98367.78
2018-08-24T17:20:24.817Z,98369.94
2018-08-24T17:23:29.778Z,98363.95
2018-08-24T17:26:34.767Z,98361.34
2018-08-24T17:29:39.786Z,98362.21
2018-08-24T17:32:44.791Z,98373.66
2018-08-24T17:35:49.877Z,98371.17
2018-08-24T17:38:54.926Z,98375.18
2018-08-24T17:42:00.045Z,98386.73
2018-08-24T17:45:05.277Z,98392.33
2018-08-24T17:48:10.504Z,98395.23
2018-08-24T17:51:15.525Z,98397.55
2018-08-24T17:54:20.667Z,98399.97
2018-08-24T17:57:25.709Z,98400.90
2018-08-24T18:00:30.754Z,98410.41
2018-08-24T18:03:35.736Z,98405.54
2018-08-24T18:06:40.754Z,98398.61
2018-08-24T18:09:45.770Z,98405.09
2018-08-24T18:12:50.743Z,98406.48
2018-08-24T18:15:55.717Z,98406.12
2018-08-24T18:19:00.689Z,98413.58
2018-08-24T18:22:05.720Z,98412.58
2018-08-24T18:25:10.697Z,98417.73
2018-08-24T18:28:15.677Z,98416.25
2018-08-24T18:31:20.632Z,98418.56
2018-08-24T18:34:25.582Z,98419.08
2018-08-24T18:37:30.673Z,98429.39
2018-08-24T18:40:35.625Z,98437.47
2018-08-24T18:43:40.574Z,98442.16
2018-08-24T18:46:45.534Z,98446.09
2018-08-24T18:49:50.481Z,98441.73
2018-08-24T18:52:55.427Z,98440.42
2018-08-24T18:56:00.433Z,98448.95
2018-08-24T18:59:05.406Z,98451.30
2018-08-24T19:02:10.404Z,98455.59
2018-08-24T19:05:15.409Z,98466.09
2018-08-24T19:08:20.393Z,98464.22
2018-08-24T19:11:31.139Z,98472.09
2018-08-24T19:14:36.149Z,98472.45
2018-08-24T19:18:48.013Z,98483.37
2018-08-24T19:21:57.609Z,98492.59
2018-08-24T19:25:02.625Z,98491.42
2018-08-24T19:28:13.322Z,98501.88
2018-08-24T19:31:18.365Z,98494.50
2018-08-24T19:34:23.355Z,98496.85
2018-08-24T19:37:28.385Z,98494.80
2018-08-24T19:40:38.990Z,98501.69
2018-08-24T19:43:44.101Z,98507.73
2018-08-24T19:46:49.063Z,98517.49
2018-08-24T19:49:54.065Z,98515.45
2018-08-24T19:52:59.262Z,98524.91
2018-08-24T19:56:04.675Z,98524.77
2018-08-24T19:59:11.915Z,98524.56
2018-08-24T20:02:17.005Z,98529.37
2018-08-24T20:05:22.001Z,98523.85
2018-08-24T20:08:32.865Z,98528.59
2018-08-24T20:11:38.067Z,98528.88
2018-08-24T20:14:48.748Z,98531.89
2018-08-24T20:17:53.918Z,98530.76
2018-08-24T20:20:58.993Z,98531.60
2018-08-24T20:24:04.079Z,98531.56
2018-08-24T20:27:09.098Z,98538.02
2018-08-24T20:30:14.079Z,98535.13
2018-08-24T20:33:19.052Z,98536.27
2018-08-24T20:36:24.000Z,98537.45
2018-08-24T20:39:29.248Z,98539.24
2018-08-24T20:42:34.701Z,98546.66
2018-08-24T20:45:39.816Z,98541.58
2018-08-24T20:48:44.873Z,98544.25
2018-08-24T20:51:49.842Z,98535.81
2018-08-24T20:54:56.334Z,98534.59
2018-08-24T20:58:01.777Z,98527.83
2018-08-24T21:01:06.970Z,98527.48
2018-08-24T21:04:11.978Z,98527.59
2018-08-24T21:07:17.113Z,98528.73
2018-08-24T21:10:22.102Z,98539.97
2018-08-24T21:13:27.017Z,98538.67
2018-08-24T21:16:32.829Z,98532.59
2018-08-24T21:19:37.957Z,98526.36
2018-08-24T21:22:43.048Z,98532.20
2018-08-24T21:25:47.980Z,98523.07
2018-08-24T21:28:52.910Z,98522.69
2018-08-24T21:31:58.325Z,98522.08
2018-08-24T21:35:03.341Z,98520.29
2018-08-24T21:38:08.449Z,98514.36
2018-08-24T21:41:13.377Z,98514.78
2018-08-24T21:44:18.598Z,98513.25
2018-08-24T21:47:24.012Z,98520.36
2018-08-24T21:50:29.017Z,98517.34
2018-08-24T21:53:34.248Z,98515.78
2018-08-24T21:56:39.231Z,98514.14
2018-08-24T22:03:24.954Z,98511.77
2018-08-24T22:06:29.877Z,98513.25
2018-08-24T22:09:34.908Z,98519.91
2018-08-24T22:12:40.146Z,98516.09
2018-08-24T22:15:45.066Z,98521.71
2018-08-24T22:18:49.998Z,98522.98
2018-08-24T22:21:55.181Z,98517.34
2018-08-24T22:25:00.078Z,98511.73
2018-08-24T22:28:05.388Z,98515.55
2018-08-24T22:31:10.468Z,98515.84
2018-08-24T22:34:15.812Z,98516.92
2018-08-24T22:37:20.724Z,98516.55
2018-08-24T22:40:25.649Z,98509.66
2018-08-24T22:43:34.990Z,98497.56
2018-08-24T22:46:39.898Z,98493.29
2018-08-24T22:49:44.808Z,98495.27
2018-08-24T22:52:49.737Z,98497.05
2018-08-24T22:55:54.677Z,98497.44
2018-08-24T22:58:59.591Z,98501.27
2018-08-24T23:02:04.588Z,98502.58
2018-08-24T23:05:09.557Z,98503.94
2018-08-24T23:08:14.508Z,98503.21
2018-08-24T23:11:19.470Z,98500.98
2018-08-24T23:14:24.418Z,98504.70
2018-08-24T23:17:29.368Z,98504.38
2018-08-24T23:20:34.317Z,98506.19
2018-08-24T23:23:39.252Z,98504.59
2018-08-24T23:26:44.249Z,98500.40
2018-08-24T23:29:49.195Z,98486.17
2018-08-24T23:32:54.145Z,98483.20
2018-08-24T23:35:59.126Z,98487.14
2018-08-24T23:39:06.805Z,98488.88
2018-08-24T23:42:11.736Z,98485.19
2018-08-24T23:45:16.690Z,98479.17
2018-08-24T23:48:21.642Z,98481.06
2018-08-24T23:51:26.606Z,98468.70
2018-08-24T23:54:31.565Z,98462.59
2018-08-24T23:57:36.517Z,98465.84
